• Join FlightAware (Why Join?)
  • Login
  • US Flag 
10:00PM EST


 

Airport Tracker/Info


-or-


 

Live Flight TrackerFlight Track Log ✈ ASQ3813 ✈ 11-Jun-2013 ✈ KORD - CYWG

Flight Track Log - Related Links

Times and Time Zones

All times are in EDT time to prevent confusion due to time zone crossing. See the ASQ3813 flight status page for this flight to view local times or setup timezone preferences in your user account.

Time Position Orientation Groundspeed Altitude Reporting Facility
EDT Latitude Longitude Course Direction KTS MPH feet Rate Location/Type
09:21PM 42.0333 -87.9833 346° North 196 226 3,000  Level Chicago TRACON
09:22PM 42.0833 -88.0167 334° Northwest 254 292 4,400 1,140 Climbing Chicago TRACON
09:23PM 42.1286 -88.0167 360° North 257 296 5,000 1,440 Climbing Chicago Center
09:24PM 42.3554 -88.0193 340° North  Level FlightAware Approximate
09:24PM 42.2033 -88.0097 North 269 310 6,900  Level Chicago Center
09:25PM 42.4511 -88.0569 352° North  Level FlightAware Approximate
09:25PM 42.2894 -88.0058 North 262 302 9,800  Level Chicago Center
09:26PM 42.5458 -88.0930 346° North  Level FlightAware Approximate
09:26PM 42.3569 -87.9983 North 252 290 11,100  Level Chicago Center
09:27PM 42.4361 -88.0003 359° North 279 321 12,200 780 Climbing Chicago Center
09:28PM 42.5167 -88.0397 340° North 304 350 12,800 660 Climbing Chicago Center
09:29PM 42.6058 -88.0767 343° North 329 379 13,600 900 Climbing Chicago Center
09:30PM 42.7097 -88.1256 341° North 339 390 14,700 1,200 Climbing Chicago Center
09:31PM 42.7811 -88.2097 319° Northwest 335 386 16,100 1,680 Climbing Chicago Center
09:32PM 42.8275 -88.3053 304° West 297 342 18,200 1,740 Climbing Chicago Center
09:33PM 42.8783 -88.3850 311° West 278 320 19,700 1,320 Climbing Chicago Center
09:34PM 42.9411 -88.4433 326° Northwest 271 312 21,000 900 Climbing Chicago Center
09:35PM 43.0069 -88.5031 326° Northwest 280 322 21,600 600 Climbing Chicago Center
09:36PM 43.0769 -88.5661 327° Northwest 296 341 22,300 840 Climbing Chicago Center
09:37PM 43.1636 -88.6444 327° Northwest 316 364 23,400 1,200 Climbing Chicago Center
09:38PM 43.2386 -88.7117 327° Northwest 319 367 24,800 1,260 Climbing Chicago Center
09:39PM 43.3114 -88.7792 326° Northwest 313 360 26,000 960 Climbing Chicago Center
09:40PM 43.3864 -88.8475 326° Northwest 319 367 26,800 780 Climbing Chicago Center
09:41PM 43.4639 -88.9178 327° Northwest 329 379 27,700 780 Climbing Chicago Center
09:42PM 43.5425 -88.9903 326° Northwest 335 386 28,400 780 Climbing Chicago Center
09:43PM 43.6219 -89.0625 327° Northwest 339 390 29,300 780 Climbing Chicago Center
09:44PM 43.7028 -89.1381 326° Northwest 348 400 30,100 780 Climbing Chicago Center
09:46PM 43.7847 -89.2131 327° Northwest 354 407 30,900 840 Climbing Chicago Center
09:47PM 43.8819 -89.3031 326° Northwest 360 414 31,900 960 Climbing Chicago Center
09:48PM 43.9656 -89.3817 326° Northwest 361 415 33,000 1,080 Climbing Chicago Center
09:49PM 44.0469 -89.4581 326° Northwest 354 407 34,200 1,140 Climbing Chicago Center
09:50PM 44.1267 -89.5328 326° Northwest 346 398 35,400 1,080 Climbing Chicago Center
09:50PM 44.1517 -89.5558 327° Northwest 342 394 35,800 420 Climbing Minneapolis Center
09:51PM 44.2292 -89.6294 326° Northwest 338 389 36,000 60 Climbing Minneapolis Center
09:52PM 44.3261 -89.7203 326° Northwest 358 412 36,000  Level Minneapolis Center
09:53PM 44.4136 -89.8036 326° Northwest 377 434 36,000  Level Minneapolis Center
09:54PM 44.5028 -89.8886 326° Northwest 387 445 36,000  Level Minneapolis Center
09:55PM 44.5903 -89.9731 326° Northwest 383 441 36,000  Level Minneapolis Center
09:56PM 44.6772 -90.0583 325° Northwest 382 440 36,000  Level Minneapolis Center
09:57PM 44.7650 -90.1414 326° Northwest 381 438 36,000  Level Minneapolis Center
09:58PM 44.8542 -90.2289 325° Northwest 377 434 36,000  Level Minneapolis Center
09:59PM 44.9406 -90.3125 326° Northwest 376 433 36,000  Level Minneapolis Center
10:00PM 45.0261 -90.3967 325° Northwest 375 432 36,000  Level Minneapolis Center
10:01PM 45.1117 -90.4803 325° Northwest 374 430 36,000  Level Minneapolis Center
10:02PM 45.1994 -90.5658 326° Northwest 380 437 36,000  Level Minneapolis Center
10:03PM 45.2897 -90.6553 325° Northwest 389 448 36,000  Level Minneapolis Center
10:04PM 45.3975 -90.7639 325° Northwest 393 452 36,000  Level Minneapolis Center
10:05PM 45.4881 -90.8525 326° Northwest 393 452 36,000  Level Minneapolis Center
10:06PM 45.5750 -90.9400 325° Northwest 386 444 36,000  Level Minneapolis Center
10:07PM 45.6611 -91.0250 325° Northwest 379 436 36,000  Level Minneapolis Center
10:08PM 45.7458 -91.1114 325° Northwest 375 432 36,000  Level Minneapolis Center
10:09PM 45.8292 -91.1961 325° Northwest 368 423 36,000  Level Minneapolis Center
10:10PM 45.9119 -91.2786 325° Northwest 365 420 36,000  Level Minneapolis Center
10:11PM 45.9944 -91.3631 325° Northwest 363 418 36,000  Level Minneapolis Center
10:13PM 46.0761 -91.4467 325° Northwest 361 415 36,000  Level Minneapolis Center
10:14PM 46.1575 -91.5311 324° Northwest 361 415 36,000  Level Minneapolis Center
10:15PM 46.2472 -91.6228 325° Northwest 367 422 36,000  Level Minneapolis Center
10:16PM 46.3308 -91.7083 325° Northwest 369 425 36,000  Level Minneapolis Center
10:17PM 46.4139 -91.7953 324° Northwest 369 425 36,000  Level Minneapolis Center
10:18PM 46.4981 -91.8822 325° Northwest 372 428 36,000  Level Minneapolis Center
10:19PM 46.5811 -91.9717 324° Northwest 373 429 36,000  Level Minneapolis Center
10:20PM 46.6689 -92.0636 324° Northwest 381 438 36,000  Level Minneapolis Center
10:21PM 46.7764 -92.1756 325° Northwest 390 449 36,000  Level Minneapolis Center
10:22PM 46.8606 -92.2733 322° Northwest 390 449 36,000  Level Minneapolis Center
10:23PM 46.9367 -92.3689 319° Northwest 370 426 36,000  Level Minneapolis Center
10:24PM 47.0136 -92.4636 320° Northwest 363 418 36,000  Level Minneapolis Center
10:25PM 47.0931 -92.5622 320° Northwest 371 427 36,000  Level Minneapolis Center
10:26PM 47.1747 -92.6639 320° Northwest 381 438 36,000  Level Minneapolis Center
10:27PM 47.2575 -92.7658 320° Northwest 388 447 36,000  Level Minneapolis Center
10:28PM 47.3389 -92.8661 320° Northwest 387 445 36,000  Level Minneapolis Center
10:29PM 47.4344 -92.9842 320° Northwest 383 441 36,000 -60 Level Minneapolis Center
10:30PM 47.5122 -93.0833 319° Northwest 380 437 35,900  Descending Minneapolis Center
10:31PM 47.5864 -93.1819 318° Northwest 370 426 36,000  Climbing Minneapolis Center
10:32PM 47.6625 -93.2794 319° Northwest 367 422 36,000  Level Minneapolis Center
10:33PM 47.7414 -93.3808 319° Northwest 376 433 36,000  Level Minneapolis Center
10:34PM 47.8214 -93.4839 319° Northwest 383 441 36,000  Level Minneapolis Center
10:35PM 47.9042 -93.5919 319° Northwest 392 451 36,000  Level Minneapolis Center
10:36PM 47.9856 -93.6975 319° Northwest 392 451 36,000  Level Minneapolis Center
10:37PM 48.0836 -93.8269 319° Northwest 392 451 36,000  Level Minneapolis Center
10:38PM 48.1658 -93.9353 319° Northwest 394 453 36,000  Level Minneapolis Center
10:39PM 48.2481 -94.0442 319° Northwest 395 455 36,000  Level Minneapolis Center
10:40PM 48.3314 -94.1533 319° Northwest 396 456 36,000  Level Minneapolis Center
10:41PM 48.4144 -94.2642 318° Northwest 398 458 36,000  Level Minneapolis Center
10:42PM 48.4967 -94.3758 318° Northwest 399 459 36,000  Level Minneapolis Center
10:43PM 48.5797 -94.4872 318° Northwest 400 460 36,000  Level Minneapolis Center
10:44PM 48.6622 -94.5994 318° Northwest 400 460 36,000  Level Minneapolis Center
10:45PM 48.7439 -94.7086 319° Northwest 397 457 36,000  Level Minneapolis Center
10:46PM 48.8247 -94.8186 318° Northwest 395 455 36,000  Level Minneapolis Center
10:47PM 48.8833 -94.9000 318° Northwest 390 449 36,000  Level Winnipeg Center
10:48PM 48.9833 -95.0333 319° Northwest 390 449 36,000 -900 Level Winnipeg Center
10:49PM 49.0500 -95.1333 316° Northwest 380 437 34,200 -2,040 Descending Winnipeg Center
10:50PM 49.1333 -95.2333 322° Northwest 380 437 32,000 -2,220 Descending Winnipeg Center
10:51PM 49.2167 -95.3500 318° Northwest 400 460 29,800 -2,100 Descending Winnipeg Center
10:52PM 49.2833 -95.4500 316° Northwest 390 449 27,900 -2,100 Descending Winnipeg Center
10:53PM 49.3667 -95.5833 314° West 410 472 25,700 -2,340 Descending Winnipeg Center
10:54PM 49.4500 -95.7000 318° Northwest 400 460 23,300 -2,100 Descending Winnipeg Center
10:55PM 49.5000 -95.8333 300° West 380 437 21,500 -2,100 Descending Winnipeg Center
10:56PM 49.5167 -95.9833 280° West 370 426 19,100 -2,100 Descending Winnipeg Center
10:57PM 49.5500 -96.1333 289° West 350 403 17,300 -1,800 Descending Winnipeg Center
10:58PM 49.5833 -96.2667 291° West 350 403 15,600 -1,740 Descending Winnipeg Center
10:59PM 49.6167 -96.4167 289° West 350 403 13,900 -1,740 Descending Winnipeg Center
11:00PM 49.6333 -96.5500 281° West 340 391 12,200 -1,620 Descending Winnipeg Center
11:01PM 49.6500 -96.6833 281° West 290 334 10,700 -1,560 Descending Winnipeg Center
11:02PM 49.6667 -96.7833 284° West 260 299 9,100 -1,680 Descending Winnipeg Center
11:03PM 49.6833 -96.8833 284° West 250 288 7,400 -1,740 Descending Winnipeg Center
11:04PM 49.7000 -97.0000 282° West 240 276 5,700 -1,680 Descending Winnipeg Center
11:05PM 49.7167 -97.1000 284° West 240 276 4,100 -1,620 Descending Winnipeg Center